Fireboat Challenger — WR8183 — position and weather

sailwx.info

Track history (hours):
 
Tides and Currents Weather Stations Pressure Air Temp Water Temp Dewpoint Dewpoint Depression Visibility Wind Speed Wind Dir Waves Ship Positions

Fireboat Challenger

Owner: Long Beach, City of, LONG BEACH, CA. More information available from US FCC via Universal Licensing System and Coast Guard Vessel Documentation Center.

Last reported at 2017-Oct-09 02:20 UTC. Time now 2017-Nov-19 14:13 UTC.
Position N 33°44' W 118°16'.
Warning: this ship's position is 41 days out of date.

Length 29 m.

MMSI: 367067790.

Date/timePositionNaut miles runAvg speedWind from/ knotsBaromVisibWave heightAir tempDewpointWater temp
2017-Oct-09 02:20N 33°44' W 118°16'1 2.6
2017-Oct-09 02:00N 33°43' W 118°16'510.1
2017-Oct-09 01:30N 33°39' W 118°12'610.5
2017-Oct-09 00:56N 33°34' W 118°08'4 8.7
2017-Oct-09 00:29N 33°31' W 118°06'1 1.6
2017-Oct-09 00:00N 33°30' W 118°06'4 7.6
2017-Oct-08 23:29N 33°26' W 118°06'3 6.0
2017-Oct-08 22:58N 33°24' W 118°10'510.4
2017-Oct-08 22:30N 33°22' W 118°15'4 7.9
2017-Oct-08 22:00N 33°20' W 118°18'0 1.0
2017-Oct-08 21:30N 33°19' W 118°18'610.4
2017-Oct-08 20:54N 33°13' W 118°18'410.6
2017-Oct-08 20:30N 33°09' W 118°18'510.4
2017-Oct-08 20:00N 33°04' W 118°17'510.2
2017-Oct-08 19:30N 32°59' W 118°16'510.2
2017-Oct-08 19:00N 32°54' W 118°18'510.4
2017-Oct-08 18:30N 32°49' W 118°21'5 9.7
2017-Oct-08 18:00N 32°48' W 118°26'2 0.9
2017-Oct-08 16:15N 32°49' W 118°28'2 9.5
2017-Oct-08 16:00N 32°47' W 118°26'1 1.3
2017-Oct-08 15:30N 32°47' W 118°25'0 0.0
2017-Oct-08 15:00N 32°47' W 118°25'2 3.5
2017-Oct-08 14:30N 32°49' W 118°24'0 0.0
2017-Oct-08 14:00N 32°49' W 118°24'0 0.0
2017-Oct-08 13:30N 32°49' W 118°24'0 0.0
2017-Oct-08 13:00N 32°49' W 118°24'0 0.0
2017-Oct-08 12:07N 32°49' W 118°24'0 0.1
2017-Oct-08 12:00N 32°49' W 118°24'0 0.0
2017-Oct-08 11:30N 32°49' W 118°24'0 0.0
2017-Oct-08 11:00N 32°49' W 118°24'0 0.0
2017-Oct-08 10:30N 32°49' W 118°24'0 0.0
2017-Oct-08 10:00N 32°49' W 118°24'0 0.0
2017-Oct-08 09:30N 32°49' W 118°24'0 0.0
2017-Oct-08 09:00N 32°49' W 118°24'0 0.0
2017-Oct-08 08:30N 32°49' W 118°24'0 0.0
2017-Oct-08 08:00N 32°49' W 118°24'0 0.0
2017-Oct-08 07:30N 32°49' W 118°24'0 0.0
2017-Oct-08 06:18N 32°49' W 118°24'0 0.0
2017-Oct-08 06:00N 32°49' W 118°24'0 0.0
2017-Oct-08 05:30N 32°49' W 118°24'0 0.0
2017-Oct-08 05:00N 32°49' W 118°24'0 0.0
2017-Oct-08 04:30N 32°49' W 118°24'0 0.0
2017-Oct-08 04:00N 32°49' W 118°24'0 0.0
2017-Oct-08 03:30N 32°49' W 118°24'0 0.0
2017-Oct-08 03:00N 32°49' W 118°24'3 3.8
2017-Oct-08 02:20N 32°49' W 118°21'1 4.0
2017-Oct-08 02:00N 32°50' W 118°21'3 5.9
2017-Oct-08 01:29N 32°54' W 118°21'510.5
2017-Oct-08 01:00N 32°58' W 118°19'510.6
2017-Oct-08 00:30N 33°04' W 118°19'510.9
2017-Oct-08 00:00N 33°09' W 118°18'511.0
2017-Oct-07 23:30N 33°14' W 118°18'510.4
2017-Oct-07 23:00N 33°20' W 118°18'611.0
2017-Oct-07 22:30N 33°25' W 118°16'  
Track history (hours):
 
Tides and Currents Weather Stations Pressure Air Temp Water Temp Dewpoint Dewpoint Depression Visibility Wind Speed Wind Dir Waves Ship Positions

Fireboat Challenger

Owner: Long Beach, City of, LONG BEACH, CA. More information available from US FCC via Universal Licensing System and Coast Guard Vessel Documentation Center.

Last reported at 2017-Oct-09 02:20 UTC. Time now 2017-Nov-19 14:13 UTC.
Position N 33°44' W 118°16'.
Warning: this ship's position is 41 days out of date.

Length 29 m.

MMSI: 367067790.

Date/timePositionNaut miles runAvg speedWind from/ knotsBaromVisibWave heightAir tempDewpointWater temp
2017-Oct-09 02:20N 33°44' W 118°16'1 2.6
2017-Oct-09 02:00N 33°43' W 118°16'510.1
2017-Oct-09 01:30N 33°39' W 118°12'610.5
2017-Oct-09 00:56N 33°34' W 118°08'4 8.7
2017-Oct-09 00:29N 33°31' W 118°06'1 1.6
2017-Oct-09 00:00N 33°30' W 118°06'4 7.6
2017-Oct-08 23:29N 33°26' W 118°06'3 6.0
2017-Oct-08 22:58N 33°24' W 118°10'510.4
2017-Oct-08 22:30N 33°22' W 118°15'4 7.9
2017-Oct-08 22:00N 33°20' W 118°18'0 1.0
2017-Oct-08 21:30N 33°19' W 118°18'610.4
2017-Oct-08 20:54N 33°13' W 118°18'410.6
2017-Oct-08 20:30N 33°09' W 118°18'510.4
2017-Oct-08 20:00N 33°04' W 118°17'510.2
2017-Oct-08 19:30N 32°59' W 118°16'510.2
2017-Oct-08 19:00N 32°54' W 118°18'510.4
2017-Oct-08 18:30N 32°49' W 118°21'5 9.7
2017-Oct-08 18:00N 32°48' W 118°26'2 0.9
2017-Oct-08 16:15N 32°49' W 118°28'2 9.5
2017-Oct-08 16:00N 32°47' W 118°26'1 1.3
2017-Oct-08 15:30N 32°47' W 118°25'0 0.0
2017-Oct-08 15:00N 32°47' W 118°25'2 3.5
2017-Oct-08 14:30N 32°49' W 118°24'0 0.0
2017-Oct-08 14:00N 32°49' W 118°24'0 0.0
2017-Oct-08 13:30N 32°49' W 118°24'0 0.0
2017-Oct-08 13:00N 32°49' W 118°24'0 0.0
2017-Oct-08 12:07N 32°49' W 118°24'0 0.1
2017-Oct-08 12:00N 32°49' W 118°24'0 0.0
2017-Oct-08 11:30N 32°49' W 118°24'0 0.0
2017-Oct-08 11:00N 32°49' W 118°24'0 0.0
2017-Oct-08 10:30N 32°49' W 118°24'0 0.0
2017-Oct-08 10:00N 32°49' W 118°24'0 0.0
2017-Oct-08 09:30N 32°49' W 118°24'0 0.0
2017-Oct-08 09:00N 32°49' W 118°24'0 0.0
2017-Oct-08 08:30N 32°49' W 118°24'0 0.0
2017-Oct-08 08:00N 32°49' W 118°24'0 0.0
2017-Oct-08 07:30N 32°49' W 118°24'0 0.0
2017-Oct-08 06:18N 32°49' W 118°24'0 0.0
2017-Oct-08 06:00N 32°49' W 118°24'0 0.0
2017-Oct-08 05:30N 32°49' W 118°24'0 0.0
2017-Oct-08 05:00N 32°49' W 118°24'0 0.0
2017-Oct-08 04:30N 32°49' W 118°24'0 0.0
2017-Oct-08 04:00N 32°49' W 118°24'0 0.0
2017-Oct-08 03:30N 32°49' W 118°24'0 0.0
2017-Oct-08 03:00N 32°49' W 118°24'3 3.8
2017-Oct-08 02:20N 32°49' W 118°21'1 4.0
2017-Oct-08 02:00N 32°50' W 118°21'3 5.9
2017-Oct-08 01:29N 32°54' W 118°21'510.5
2017-Oct-08 01:00N 32°58' W 118°19'510.6
2017-Oct-08 00:30N 33°04' W 118°19'510.9
2017-Oct-08 00:00N 33°09' W 118°18'511.0
2017-Oct-07 23:30N 33°14' W 118°18'510.4
2017-Oct-07 23:00N 33°20' W 118°18'611.0
2017-Oct-07 22:30N 33°25' W 118°16'  

Dump ship's entire track history